Philomont, Virginia
Current Conditions -  °F | °C
As of 2:15 PM on Thursday 23 Oct 2014 (Local Time) from KJYO Reporting Station
Broken Clouds Broken Clouds  
Wind Chill: 63°   Ceiling: 4500
Heat Index: 63°   Visibility: 10mi
Dew Point: 48°   Wind: 20mph
Humidity: 59%   Direction: 330°NNW
Pressure: 29.89"   Gusts: 36mph
Location:  39.06°N, 77.74°W
Report Text: KJYO 231815Z AUTO 33017G31KT 10SM BKN045 17/09 A2989 RMK AO2
Loading
Personal Weather Stations






























Interactive Weather Map
Tropical Storm Tracking
New forecast layout! Learn more

10-Day Weather Forecast

Advertisements
Track Severe Weather on mobile